Redmond, Oregon
Current Conditions -  °F | °C
As of 6:56 PM on Thursday 27 Nov 2014 (Local Time) from KRDM Reporting Station
Broken Clouds Broken Clouds  
Wind Chill: 42°   Ceiling: 9000
Heat Index: 48°   Visibility: 10mi
Dew Point: 40°   Wind: 17mph
Humidity: 74%   Direction: 190°S
Pressure: 29.93"   Gusts: 26mph
Location:  44.27°N, 121.17°W
Report Text: KRDM 280256Z 19015G23KT 10SM BKN090 BKN120 09/04 A2993 RMK AO2 SLP129 T00890044 58002
Loading
Personal Weather Stations






























Interactive Weather Map New forecast layout! Learn more

10-Day Weather Forecast

Advertisements
Track Severe Weather on mobile